createdAt,value
2019-01-25T00:00:37.024Z,13.66
2019-01-25T00:04:07.114Z,11.79
2019-01-25T00:07:37.243Z,10.53
2019-01-25T00:11:07.441Z,19.36
2019-01-25T00:14:37.524Z,11.49
2019-01-25T00:18:07.864Z,12.14
2019-01-25T00:21:38.954Z,18.09
2019-01-25T00:25:09.356Z,15.05
2019-01-25T00:28:39.483Z,18.29
2019-01-25T00:32:09.604Z,17.49
2019-01-25T00:35:39.742Z,9.62
2019-01-25T00:39:09.874Z,10.26
2019-01-25T00:42:40.054Z,11.49
2019-01-25T00:46:10.184Z,11.73
2019-01-25T00:49:40.395Z,10.29
2019-01-25T00:53:10.463Z,10.1
2019-01-25T00:56:40.605Z,11.82
2019-01-25T01:00:16.155Z,11.53
2019-01-25T01:03:46.335Z,9.38
2019-01-25T01:07:16.425Z,7.1
2019-01-25T01:10:46.525Z,11.66
2019-01-25T01:14:16.622Z,9.25
2019-01-25T01:17:47.365Z,15.12
2019-01-25T01:21:17.376Z,12.47
2019-01-25T01:24:47.886Z,12.34
2019-01-25T01:28:17.976Z,11.34
2019-01-25T01:31:48.066Z,12.74
2019-01-25T01:35:18.175Z,11.19
2019-01-25T01:38:48.416Z,16.25
2019-01-25T01:42:18.506Z,10.96
2019-01-25T01:45:48.665Z,10.36
2019-01-25T01:49:18.706Z,12.24
2019-01-25T01:52:49.862Z,8.85
2019-01-25T01:56:19.893Z,8.79
2019-01-25T01:59:50.037Z,10.28
2019-01-25T02:00:19.766Z,9.96
2019-01-25T02:03:49.726Z,9.81
2019-01-25T02:07:19.837Z,17.04
2019-01-25T02:10:49.976Z,19.03
2019-01-25T02:14:20.177Z,16.14
2019-01-25T02:17:50.517Z,10.95
2019-01-25T02:21:20.737Z,12.43
2019-01-25T02:24:51.717Z,10.04
2019-01-25T02:28:21.837Z,9.99
2019-01-25T02:31:51.877Z,10.57
2019-01-25T02:35:22.297Z,11.51
2019-01-25T02:38:52.343Z,9.75
2019-01-25T02:42:22.498Z,8.12
2019-01-25T02:45:52.507Z,11.39
2019-01-25T02:49:22.638Z,7.78
2019-01-25T02:52:52.757Z,8.14
2019-01-25T02:56:22.988Z,11.96
2019-01-25T02:59:52.998Z,12.96
2019-01-25T03:03:23.017Z,11.24
2019-01-25T03:06:53.110Z,12.11
2019-01-25T03:10:28.655Z,14.31
2019-01-25T03:13:59.509Z,13.59
2019-01-25T03:17:29.539Z,26
2019-01-25T03:20:59.689Z,17.39
2019-01-25T03:24:29.909Z,14.93
2019-01-25T03:28:00.943Z,15.58
2019-01-25T03:31:30.940Z,13.49
2019-01-25T03:35:00.933Z,10.16
2019-01-25T03:38:31.040Z,18.85
2019-01-25T03:42:01.180Z,11.89
2019-01-25T03:45:31.218Z,15.36
2019-01-25T03:49:01.289Z,9.22
2019-01-25T03:52:31.498Z,18.65
2019-01-25T03:56:01.570Z,14.85
2019-01-25T03:59:31.669Z,9.16
2019-01-25T04:00:17.900Z,9.2
2019-01-25T04:03:48.089Z,9.94
2019-01-25T04:07:18.180Z,9.86
2019-01-25T04:10:48.289Z,12.6
2019-01-25T04:14:18.410Z,14.66
2019-01-25T04:17:48.632Z,13.1
2019-01-25T04:21:18.779Z,12.29
2019-01-25T04:24:48.992Z,9.23
2019-01-25T04:28:20.080Z,11.39
2019-01-25T04:31:50.180Z,7.75
2019-01-25T04:35:20.410Z,9.48
2019-01-25T04:38:50.441Z,11.72
2019-01-25T04:42:20.630Z,13.62
2019-01-25T04:45:50.766Z,12.26
2019-01-25T04:49:20.850Z,11
2019-01-25T04:52:51.340Z,16.71
2019-01-25T04:56:21.420Z,10.74
2019-01-25T04:59:51.519Z,11.79
2019-01-25T05:03:21.669Z,14.03
2019-01-25T05:06:51.722Z,15.69
2019-01-25T05:10:21.927Z,21.83
2019-01-25T05:13:52.030Z,21.68
2019-01-25T05:17:22.200Z,19.75
2019-01-25T05:20:52.363Z,14.88
2019-01-25T05:24:22.481Z,9.62
2019-01-25T05:27:52.710Z,10.18
2019-01-25T05:31:26.667Z,14.74
2019-01-25T05:34:56.840Z,16.47
2019-01-25T05:38:27.090Z,19.75
2019-01-25T05:41:57.083Z,12.6
2019-01-25T05:45:27.410Z,9.86
2019-01-25T05:48:57.540Z,7.68
2019-01-25T05:52:27.593Z,8.81
2019-01-25T05:55:57.770Z,9.58
2019-01-25T05:59:27.900Z,18.92
2019-01-25T06:00:22.778Z,14.89
2019-01-25T06:03:52.830Z,19.47
2019-01-25T06:07:26.160Z,16.62
2019-01-25T06:10:57.860Z,20.6
2019-01-25T06:14:27.950Z,11.69
2019-01-25T06:18:00.380Z,18.2
2019-01-25T06:21:30.380Z,15.87
2019-01-25T06:25:00.400Z,14.55
2019-01-25T06:28:30.510Z,14.69
2019-01-25T06:32:01.600Z,14.6
2019-01-25T06:35:31.730Z,5.21
2019-01-25T06:39:03.401Z,6.66
2019-01-25T06:42:33.431Z,9.34
2019-01-25T06:46:04.231Z,6.98
2019-01-25T06:49:34.420Z,8.41
2019-01-25T06:53:04.453Z,9.99
2019-01-25T06:56:34.531Z,10.56
2019-01-25T07:00:07.081Z,15.39
2019-01-25T07:03:37.271Z,14.09
2019-01-25T07:07:15.000Z,19.7
2019-01-25T07:10:45.290Z,11.64
2019-01-25T07:14:15.282Z,13.9
2019-01-25T07:17:45.471Z,12.51
2019-01-25T07:21:15.543Z,18.25
2019-01-25T07:24:46.790Z,16.84
2019-01-25T07:28:17.053Z,12.84
2019-01-25T07:31:47.212Z,15.29
2019-01-25T07:35:17.555Z,18.65
2019-01-25T07:38:47.805Z,20.08
2019-01-25T07:42:17.850Z,19.49
2019-01-25T07:45:47.999Z,16.88
2019-01-25T07:49:18.192Z,16.96
2019-01-25T07:52:48.358Z,17.71
2019-01-25T07:56:18.393Z,19.69
2019-01-25T07:59:48.553Z,11.71
2019-01-25T08:00:17.794Z,12.2
2019-01-25T08:03:47.833Z,9.88
2019-01-25T08:07:17.938Z,10.77
2019-01-25T08:10:47.973Z,8.69
2019-01-25T08:14:18.175Z,11.81
2019-01-25T08:17:48.344Z,8.19
2019-01-25T08:21:18.514Z,9.25
2019-01-25T08:24:48.664Z,10.12
2019-01-25T08:28:18.919Z,7.31
2019-01-25T08:31:49.317Z,6.91
2019-01-25T08:35:20.933Z,7.99
2019-01-25T08:38:51.015Z,10.7
2019-01-25T08:42:21.214Z,9.65
2019-01-25T08:45:51.379Z,10.74
2019-01-25T08:49:21.485Z,7.75
2019-01-25T08:52:51.963Z,10.24
2019-01-25T08:56:22.159Z,6.69
2019-01-25T08:59:52.225Z,8.12
2019-01-25T09:03:22.266Z,8.82
2019-01-25T09:06:52.177Z,9.43
2019-01-25T09:10:22.350Z,8.7
2019-01-25T09:13:52.431Z,8.56
2019-01-25T09:17:22.586Z,7.88
2019-01-25T09:20:52.596Z,10.39
2019-01-25T09:24:22.696Z,7.52
2019-01-25T09:27:52.789Z,11.89
2019-01-25T09:31:22.887Z,7.61
2019-01-25T09:34:52.957Z,9.45
2019-01-25T09:38:23.977Z,9.29
2019-01-25T09:41:54.053Z,8.53
2019-01-25T09:45:24.157Z,8.95
2019-01-25T09:48:54.257Z,8.46
2019-01-25T09:52:24.298Z,7.16
2019-01-25T09:55:54.258Z,9.24
2019-01-25T09:59:24.438Z,12.14
2019-01-25T10:00:27.129Z,12.89
2019-01-25T10:03:57.079Z,10.35
2019-01-25T10:07:27.149Z,9.5
2019-01-25T10:10:57.289Z,9.06
2019-01-25T10:14:27.389Z,10.21
2019-01-25T10:17:57.463Z,9.11
2019-01-25T10:21:27.650Z,7.59
2019-01-25T10:24:57.699Z,7.5
2019-01-25T10:28:27.713Z,6.75
2019-01-25T10:31:57.730Z,10.04
2019-01-25T10:35:27.890Z,7.46
2019-01-25T10:38:59.580Z,7.68
2019-01-25T10:42:29.722Z,9.68
2019-01-25T10:45:59.742Z,8.04
2019-01-25T10:49:29.772Z,10.45
2019-01-25T10:52:59.923Z,10.15
2019-01-25T10:56:30.033Z,7.74
2019-01-25T11:00:00.168Z,11.43
2019-01-25T11:03:30.253Z,11.56
2019-01-25T11:07:00.304Z,11.39
2019-01-25T11:10:30.859Z,7.84
2019-01-25T11:14:00.924Z,7.62
2019-01-25T11:17:36.355Z,8.09
2019-01-25T11:21:06.805Z,7.3
2019-01-25T11:24:36.907Z,9.51
2019-01-25T11:28:07.045Z,13.99
2019-01-25T11:31:37.216Z,8.8
2019-01-25T11:35:07.365Z,7.16
2019-01-25T11:38:37.444Z,9.95
2019-01-25T11:42:08.466Z,10.77
2019-01-25T11:45:38.746Z,9.88
2019-01-25T11:49:08.947Z,8.16
2019-01-25T11:52:39.027Z,9.48
2019-01-25T11:56:09.098Z,16.79
2019-01-25T11:59:39.258Z,9.18
2019-01-25T12:00:19.713Z,9.91
2019-01-25T12:03:49.759Z,10.99
2019-01-25T12:07:19.999Z,15.53
2019-01-25T12:10:50.179Z,13.85
2019-01-25T12:14:20.221Z,8.22
2019-01-25T12:17:50.321Z,8.45
2019-01-25T12:21:20.750Z,12.99
2019-01-25T12:24:50.870Z,11.86
2019-01-25T12:28:21.000Z,13.06
2019-01-25T12:31:51.041Z,13.71
2019-01-25T12:35:21.431Z,10.65
2019-01-25T12:38:51.526Z,15.38
2019-01-25T12:42:22.521Z,10.36
2019-01-25T12:45:52.651Z,10.29
2019-01-25T12:49:22.862Z,9.66
2019-01-25T12:52:52.912Z,15.23
2019-01-25T12:56:23.042Z,11.69
2019-01-25T12:59:53.152Z,11.46
2019-01-25T13:03:23.302Z,10.35
2019-01-25T13:06:53.272Z,15
2019-01-25T13:10:23.502Z,7.74
2019-01-25T13:13:53.582Z,12.01
2019-01-25T13:17:23.622Z,10.71
2019-01-25T13:20:53.723Z,12.18
2019-01-25T13:24:23.869Z,15
2019-01-25T13:27:53.903Z,10.69
2019-01-25T13:31:24.003Z,12.41
2019-01-25T13:34:54.145Z,10.7
2019-01-25T13:38:24.242Z,11.1
2019-01-25T13:41:54.353Z,7.73
2019-01-25T13:45:24.706Z,10.19
2019-01-25T13:48:54.713Z,11.46
2019-01-25T13:52:24.954Z,10.16
2019-01-25T13:55:55.094Z,13.01
2019-01-25T13:59:25.228Z,7.85
2019-01-25T14:00:18.514Z,10.5
2019-01-25T14:03:48.674Z,6.95
2019-01-25T14:07:21.044Z,9.73
2019-01-25T14:10:51.284Z,7.64
2019-01-25T14:14:21.311Z,9.12
2019-01-25T14:17:51.455Z,8.68
2019-01-25T14:21:21.505Z,13.77
2019-01-25T14:24:51.535Z,17.47
2019-01-25T14:28:21.765Z,13.98
2019-01-25T14:31:51.742Z,12.57
2019-01-25T14:35:21.916Z,7.5
2019-01-25T14:38:51.957Z,7.58
2019-01-25T14:42:22.106Z,11.34
2019-01-25T14:45:53.437Z,8.89
2019-01-25T14:49:23.486Z,7.38
2019-01-25T14:52:53.536Z,7.99
2019-01-25T14:56:23.587Z,11.62
2019-01-25T14:59:53.640Z,9.06
2019-01-25T15:03:23.754Z,8.28
2019-01-25T15:06:53.708Z,9.39
2019-01-25T15:10:24.177Z,7.75
2019-01-25T15:13:54.247Z,7.54
2019-01-25T15:17:24.297Z,9.95
2019-01-25T15:20:54.477Z,9.38
2019-01-25T15:24:24.557Z,9.35
2019-01-25T15:27:54.656Z,11.65
2019-01-25T15:31:24.734Z,7.61
2019-01-25T15:34:54.737Z,7.39
2019-01-25T15:38:25.708Z,9.35
2019-01-25T15:41:55.768Z,9.95
2019-01-25T15:45:25.878Z,8.44
2019-01-25T15:48:56.887Z,9.73
2019-01-25T15:52:27.017Z,11.96
2019-01-25T15:55:57.058Z,12.38
2019-01-25T15:59:27.081Z,13.01
2019-01-25T16:00:17.898Z,11.71
2019-01-25T16:03:47.948Z,10.57
2019-01-25T16:07:18.048Z,9.21
2019-01-25T16:10:47.998Z,7.74
2019-01-25T16:14:18.274Z,8.6
2019-01-25T16:17:48.607Z,14.73
2019-01-25T16:21:18.699Z,11.05
2019-01-25T16:24:48.748Z,9.49
2019-01-25T16:28:18.908Z,10.04
2019-01-25T16:31:48.969Z,9.79
2019-01-25T16:35:19.079Z,7.95
2019-01-25T16:38:49.179Z,9.77
2019-01-25T16:42:19.209Z,9.85
2019-01-25T16:45:49.309Z,14.11
2019-01-25T16:49:21.149Z,10.18
2019-01-25T16:52:51.220Z,13.16
2019-01-25T16:56:21.421Z,6.85
2019-01-25T16:59:51.590Z,8.41
2019-01-25T17:03:21.667Z,11.35
2019-01-25T17:06:51.720Z,13.49
2019-01-25T17:10:21.970Z,7.31
2019-01-25T17:13:52.090Z,10.79
2019-01-25T17:17:22.180Z,9.88
2019-01-25T17:20:52.195Z,8.96
2019-01-25T17:24:22.330Z,8.3
2019-01-25T17:27:52.470Z,7.59
2019-01-25T17:31:22.631Z,7.33
2019-01-25T17:34:52.690Z,6.61
2019-01-25T17:38:22.760Z,6.6
2019-01-25T17:41:52.791Z,5.56
2019-01-25T17:45:22.950Z,5.65
2019-01-25T17:48:53.011Z,5.53
2019-01-25T17:52:24.221Z,5.66
2019-01-25T17:55:54.211Z,3.86
2019-01-25T17:59:24.371Z,3.81
2019-01-25T18:00:18.831Z,4.7
2019-01-25T18:03:48.902Z,2.38
2019-01-25T18:07:19.123Z,4.5
2019-01-25T18:10:49.341Z,3.97
2019-01-25T18:14:19.911Z,5.12
2019-01-25T18:17:50.092Z,4.39
2019-01-25T18:21:20.711Z,3.95
2019-01-25T18:24:50.701Z,8.24
2019-01-25T18:28:24.598Z,4.14
2019-01-25T18:31:54.621Z,3.06
2019-01-25T18:35:24.681Z,6.5
2019-01-25T18:38:54.691Z,3.77
2019-01-25T18:42:24.681Z,5.44
2019-01-25T18:45:54.731Z,4.62
2019-01-25T18:49:24.980Z,5.91
2019-01-25T18:52:55.933Z,3.74
2019-01-25T18:56:26.032Z,4.49
2019-01-25T18:59:55.981Z,6.85
2019-01-25T19:03:26.117Z,15.95
2019-01-25T19:06:56.182Z,5.22
2019-01-25T19:10:26.391Z,5.22
2019-01-25T19:13:56.600Z,4.05
2019-01-25T19:17:26.715Z,4.95
2019-01-25T19:20:56.702Z,4
2019-01-25T19:24:26.823Z,3.66
2019-01-25T19:27:57.012Z,5.04
2019-01-25T19:31:27.096Z,5.83
2019-01-25T19:34:57.252Z,6.3
2019-01-25T19:38:27.362Z,3.8
2019-01-25T19:41:57.372Z,3.85
2019-01-25T19:45:27.442Z,3.84
2019-01-25T19:48:57.421Z,5.95
2019-01-25T19:52:27.462Z,3.99
2019-01-25T19:55:57.683Z,4.59
2019-01-25T19:59:27.812Z,7.2
2019-01-25T20:00:20.273Z,3.85
2019-01-25T20:03:50.262Z,2.98
2019-01-25T20:07:20.537Z,4.8
2019-01-25T20:10:50.666Z,9.55
2019-01-25T20:14:20.794Z,5.06
2019-01-25T20:17:50.926Z,6.06
2019-01-25T20:21:21.103Z,3.28
2019-01-25T20:24:51.203Z,6.52
2019-01-25T20:28:21.235Z,8.19
2019-01-25T20:31:51.213Z,6.06
2019-01-25T20:35:23.938Z,5.33
2019-01-25T20:38:54.003Z,16.77
2019-01-25T20:42:24.053Z,4.97
2019-01-25T20:45:54.153Z,5.67
2019-01-25T20:49:24.174Z,7.24
2019-01-25T20:52:54.563Z,7.86
2019-01-25T20:56:25.723Z,7.25
2019-01-25T20:59:56.664Z,7.37
2019-01-25T21:03:26.794Z,8.36
2019-01-25T21:06:56.873Z,8.88
2019-01-25T21:10:27.003Z,6.81
2019-01-25T21:13:57.073Z,5.88
2019-01-25T21:17:27.143Z,8.42
2019-01-25T21:20:57.303Z,10.59
2019-01-25T21:24:27.405Z,11.57
2019-01-25T21:27:57.655Z,18.99
2019-01-25T21:31:27.650Z,7.9
2019-01-25T21:34:57.724Z,7.57
2019-01-25T21:38:27.774Z,10.69
2019-01-25T21:41:57.934Z,6.14
2019-01-25T21:45:29.966Z,8.01
2019-01-25T21:48:59.964Z,11.29
2019-01-25T21:52:30.097Z,7.8
2019-01-25T21:56:00.261Z,8.38
2019-01-25T21:59:31.399Z,6.95
2019-01-25T22:00:18.789Z,11.02
2019-01-25T22:03:48.858Z,7.96
2019-01-25T22:07:19.058Z,4.94
2019-01-25T22:10:49.528Z,6.42
2019-01-25T22:14:19.658Z,5.79
2019-01-25T22:17:49.639Z,9.73
2019-01-25T22:21:19.708Z,6.28
2019-01-25T22:24:49.739Z,8.22
2019-01-25T22:28:19.948Z,9.99
2019-01-25T22:31:49.988Z,7.75
2019-01-25T22:35:20.168Z,5.06
2019-01-25T22:38:50.197Z,9.53
2019-01-25T22:42:20.308Z,7.27
2019-01-25T22:45:50.438Z,8.05
2019-01-25T22:49:20.498Z,4.83
2019-01-25T22:52:50.478Z,4.53
2019-01-25T22:56:20.538Z,4.53
2019-01-25T22:59:50.868Z,6.45
2019-01-25T23:03:28.068Z,4.96
2019-01-25T23:07:03.048Z,2.85
2019-01-25T23:10:33.358Z,4.91
2019-01-25T23:14:04.418Z,9.29
2019-01-25T23:17:34.588Z,5.51
2019-01-25T23:21:04.739Z,10.88
2019-01-25T23:24:34.890Z,6.23
2019-01-25T23:28:04.977Z,6.14
2019-01-25T23:31:35.118Z,6.26
2019-01-25T23:35:05.347Z,8.56
2019-01-25T23:38:35.367Z,5.31
2019-01-25T23:42:05.568Z,7.54
2019-01-25T23:45:35.587Z,4.81
2019-01-25T23:49:05.707Z,7.96
2019-01-25T23:52:35.842Z,4.03
2019-01-25T23:56:06.017Z,8.91
2019-01-25T23:59:36.119Z,5.92
